sensor_id;sensor_type;location;lat;lon;timestamp;pressure;altitude;pressure_sealevel;temperature;humidity
55149;BME280;49539;48.160;11.530;2022-10-22T00:01:04;95579.50;;;13.63;100.00
55149;BME280;49539;48.160;11.530;2022-10-22T00:03:29;95572.34;;;13.65;100.00
55149;BME280;49539;48.160;11.530;2022-10-22T00:05:55;95566.69;;;13.60;100.00
55149;BME280;49539;48.160;11.530;2022-10-22T00:08:20;95561.53;;;13.62;100.00
55149;BME280;49539;48.160;11.530;2022-10-22T00:10:45;95569.75;;;13.62;100.00
55149;BME280;49539;48.160;11.530;2022-10-22T00:13:11;95572.22;;;13.69;100.00
55149;BME280;49539;48.160;11.530;2022-10-22T00:15:36;95584.53;;;13.74;100.00
55149;BME280;49539;48.160;11.530;2022-10-22T00:18:02;95573.91;;;13.76;100.00
55149;BME280;49539;48.160;11.530;2022-10-22T00:20:27;95573.16;;;13.75;100.00
55149;BME280;49539;48.160;11.530;2022-10-22T00:22:52;95574.66;;;13.67;100.00
55149;BME280;49539;48.160;11.530;2022-10-22T00:25:18;95570.38;;;13.66;100.00
55149;BME280;49539;48.160;11.530;2022-10-22T00:27:43;95576.78;;;13.72;100.00
55149;BME280;49539;48.160;11.530;2022-10-22T00:30:09;95579.34;;;13.67;100.00
55149;BME280;49539;48.160;11.530;2022-10-22T00:32:34;95575.16;;;13.75;100.00
55149;BME280;49539;48.160;11.530;2022-10-22T00:35:00;95582.91;;;13.76;100.00
55149;BME280;49539;48.160;11.530;2022-10-22T00:37:25;95601.72;;;13.74;100.00
55149;BME280;49539;48.160;11.530;2022-10-22T00:39:50;95615.75;;;13.76;100.00
55149;BME280;49539;48.160;11.530;2022-10-22T00:42:19;95618.16;;;13.74;100.00
55149;BME280;49539;48.160;11.530;2022-10-22T00:47:30;95641.84;;;13.68;100.00
55149;BME280;49539;48.160;11.530;2022-10-22T00:49:57;95650.25;;;13.52;100.00
55149;BME280;49539;48.160;11.530;2022-10-22T00:52:26;95654.28;;;13.38;100.00
55149;BME280;49539;48.160;11.530;2022-10-22T00:54:52;95647.47;;;13.43;100.00
55149;BME280;49539;48.160;11.530;2022-10-22T00:57:18;95656.50;;;13.30;100.00
55149;BME280;49539;48.160;11.530;2022-10-22T00:59:43;95654.06;;;13.32;100.00
55149;BME280;49539;48.160;11.530;2022-10-22T01:02:09;95651.03;;;13.30;100.00
55149;BME280;49539;48.160;11.530;2022-10-22T01:04:34;95641.41;;;13.26;100.00
55149;BME280;49539;48.160;11.530;2022-10-22T01:07:00;95630.34;;;13.29;100.00
55149;BME280;49539;48.160;11.530;2022-10-22T01:09:41;95635.50;;;13.27;100.00
55149;BME280;49539;48.160;11.530;2022-10-22T01:20:36;95628.63;;;13.23;100.00
55149;BME280;49539;48.160;11.530;2022-10-22T01:25:33;95625.53;;;13.21;100.00
55149;BME280;49539;48.160;11.530;2022-10-22T01:28:21;95618.78;;;13.25;100.00
55149;BME280;49539;48.160;11.530;2022-10-22T01:30:49;95617.56;;;13.26;100.00
55149;BME280;49539;48.160;11.530;2022-10-22T01:33:17;95616.03;;;13.25;100.00
55149;BME280;49539;48.160;11.530;2022-10-22T01:35:43;95615.25;;;13.25;100.00
55149;BME280;49539;48.160;11.530;2022-10-22T01:38:11;95618.19;;;13.30;100.00
55149;BME280;49539;48.160;11.530;2022-10-22T01:40:37;95622.16;;;13.29;100.00
55149;BME280;49539;48.160;11.530;2022-10-22T01:43:05;95619.72;;;13.31;100.00
55149;BME280;49539;48.160;11.530;2022-10-22T01:45:32;95623.66;;;13.30;100.00
55149;BME280;49539;48.160;11.530;2022-10-22T01:48:08;95627.34;;;13.36;100.00
55149;BME280;49539;48.160;11.530;2022-10-22T01:53:25;95623.97;;;13.32;100.00
55149;BME280;49539;48.160;11.530;2022-10-22T02:01:02;95621.22;;;13.32;100.00
55149;BME280;49539;48.160;11.530;2022-10-22T02:03:31;95629.91;;;13.31;100.00
55149;BME280;49539;48.160;11.530;2022-10-22T02:06:00;95626.81;;;13.29;100.00
55149;BME280;49539;48.160;11.530;2022-10-22T02:08:30;95636.69;;;13.26;100.00
55149;BME280;49539;48.160;11.530;2022-10-22T02:10:57;95647.06;;;13.31;100.00
55149;BME280;49539;48.160;11.530;2022-10-22T02:13:25;95656.16;;;13.28;100.00
55149;BME280;49539;48.160;11.530;2022-10-22T02:15:51;95655.28;;;13.31;100.00
55149;BME280;49539;48.160;11.530;2022-10-22T02:18:21;95657.38;;;13.27;100.00
55149;BME280;49539;48.160;11.530;2022-10-22T02:20:48;95657.81;;;13.26;100.00
55149;BME280;49539;48.160;11.530;2022-10-22T02:23:13;95663.19;;;13.29;100.00
55149;BME280;49539;48.160;11.530;2022-10-22T02:25:39;95659.88;;;13.22;100.00
55149;BME280;49539;48.160;11.530;2022-10-22T02:28:55;95676.84;;;13.16;100.00
55149;BME280;49539;48.160;11.530;2022-10-22T02:30:52;95680.22;;;13.21;100.00
55149;BME280;49539;48.160;11.530;2022-10-22T02:33:26;95681.25;;;13.14;100.00
55149;BME280;49539;48.160;11.530;2022-10-22T02:35:52;95683.75;;;13.21;100.00
55149;BME280;49539;48.160;11.530;2022-10-22T02:38:19;95687.66;;;13.20;100.00
55149;BME280;49539;48.160;11.530;2022-10-22T02:40:45;95700.69;;;13.16;100.00
55149;BME280;49539;48.160;11.530;2022-10-22T02:43:10;95697.75;;;13.23;100.00
55149;BME280;49539;48.160;11.530;2022-10-22T02:45:36;95701.03;;;13.18;100.00
55149;BME280;49539;48.160;11.530;2022-10-22T02:48:01;95703.13;;;13.14;100.00
55149;BME280;49539;48.160;11.530;2022-10-22T02:50:27;95696.31;;;13.19;100.00
55149;BME280;49539;48.160;11.530;2022-10-22T02:52:52;95696.88;;;13.13;100.00
55149;BME280;49539;48.160;11.530;2022-10-22T02:55:17;95682.75;;;13.15;100.00
55149;BME280;49539;48.160;11.530;2022-10-22T02:57:42;95688.22;;;13.28;100.00
55149;BME280;49539;48.160;11.530;2022-10-22T03:00:09;95699.81;;;13.19;100.00
55149;BME280;49539;48.160;11.530;2022-10-22T03:02:35;95696.22;;;13.22;100.00
55149;BME280;49539;48.160;11.530;2022-10-22T03:05:00;95695.22;;;13.16;100.00
55149;BME280;49539;48.160;11.530;2022-10-22T03:07:25;95689.75;;;13.16;100.00
55149;BME280;49539;48.160;11.530;2022-10-22T03:09:50;95697.41;;;13.21;100.00
55149;BME280;49539;48.160;11.530;2022-10-22T03:12:16;95690.22;;;13.14;100.00
55149;BME280;49539;48.160;11.530;2022-10-22T03:14:41;95690.41;;;13.20;100.00
55149;BME280;49539;48.160;11.530;2022-10-22T03:17:06;95700.38;;;13.14;100.00
55149;BME280;49539;48.160;11.530;2022-10-22T03:19:32;95696.13;;;13.13;100.00
55149;BME280;49539;48.160;11.530;2022-10-22T03:22:01;95705.75;;;13.18;100.00
55149;BME280;49539;48.160;11.530;2022-10-22T03:24:33;95700.81;;;13.12;100.00
55149;BME280;49539;48.160;11.530;2022-10-22T03:26:59;95702.47;;;13.10;100.00
55149;BME280;49539;48.160;11.530;2022-10-22T03:29:25;95709.16;;;13.09;100.00
55149;BME280;49539;48.160;11.530;2022-10-22T03:31:51;95725.44;;;13.00;100.00
55149;BME280;49539;48.160;11.530;2022-10-22T03:34:16;95727.13;;;12.97;100.00
55149;BME280;49539;48.160;11.530;2022-10-22T03:36:42;95726.47;;;12.93;100.00
55149;BME280;49539;48.160;11.530;2022-10-22T03:39:07;95725.72;;;12.93;100.00
55149;BME280;49539;48.160;11.530;2022-10-22T03:41:33;95722.75;;;12.87;100.00
55149;BME280;49539;48.160;11.530;2022-10-22T03:43:59;95736.31;;;12.78;100.00
55149;BME280;49539;48.160;11.530;2022-10-22T03:46:26;95743.31;;;12.66;100.00
55149;BME280;49539;48.160;11.530;2022-10-22T03:48:51;95758.63;;;12.63;100.00
55149;BME280;49539;48.160;11.530;2022-10-22T03:51:17;95758.28;;;12.61;100.00
55149;BME280;49539;48.160;11.530;2022-10-22T03:53:42;95756.44;;;12.58;100.00
55149;BME280;49539;48.160;11.530;2022-10-22T03:56:08;95761.56;;;12.44;100.00
55149;BME280;49539;48.160;11.530;2022-10-22T03:58:35;95757.19;;;12.46;100.00
55149;BME280;49539;48.160;11.530;2022-10-22T04:01:07;95755.44;;;12.39;100.00
55149;BME280;49539;48.160;11.530;2022-10-22T04:03:32;95754.78;;;12.35;100.00
55149;BME280;49539;48.160;11.530;2022-10-22T04:06:05;95751.19;;;12.38;100.00
55149;BME280;49539;48.160;11.530;2022-10-22T04:08:32;95761.97;;;12.29;100.00
55149;BME280;49539;48.160;11.530;2022-10-22T04:10:57;95755.75;;;12.29;100.00
55149;BME280;49539;48.160;11.530;2022-10-22T04:13:22;95760.00;;;12.17;100.00
55149;BME280;49539;48.160;11.530;2022-10-22T04:15:48;95755.28;;;12.17;100.00
55149;BME280;49539;48.160;11.530;2022-10-22T04:18:16;95743.75;;;12.26;100.00
55149;BME280;49539;48.160;11.530;2022-10-22T04:20:41;95746.88;;;12.12;100.00
55149;BME280;49539;48.160;11.530;2022-10-22T04:23:06;95745.56;;;12.16;100.00
55149;BME280;49539;48.160;11.530;2022-10-22T04:25:32;95746.66;;;12.06;100.00
55149;BME280;49539;48.160;11.530;2022-10-22T04:27:57;95735.28;;;12.08;100.00
55149;BME280;49539;48.160;11.530;2022-10-22T04:30:22;95742.59;;;11.98;100.00
55149;BME280;49539;48.160;11.530;2022-10-22T04:32:47;95743.69;;;12.01;100.00
55149;BME280;49539;48.160;11.530;2022-10-22T04:35:13;95744.34;;;12.05;100.00
55149;BME280;49539;48.160;11.530;2022-10-22T04:37:38;95744.03;;;12.03;100.00
55149;BME280;49539;48.160;11.530;2022-10-22T04:40:04;95735.84;;;12.03;100.00
55149;BME280;49539;48.160;11.530;2022-10-22T04:42:29;95740.44;;;12.06;100.00
55149;BME280;49539;48.160;11.530;2022-10-22T04:44:55;95744.69;;;12.07;100.00
55149;BME280;49539;48.160;11.530;2022-10-22T04:47:20;95745.13;;;12.05;100.00
55149;BME280;49539;48.160;11.530;2022-10-22T04:49:45;95750.25;;;12.03;100.00
55149;BME280;49539;48.160;11.530;2022-10-22T04:52:11;95742.72;;;12.07;100.00
55149;BME280;49539;48.160;11.530;2022-10-22T04:54:36;95742.50;;;12.02;100.00
55149;BME280;49539;48.160;11.530;2022-10-22T04:57:02;95740.63;;;11.99;100.00
55149;BME280;49539;48.160;11.530;2022-10-22T04:59:27;95737.81;;;12.02;100.00
55149;BME280;49539;48.160;11.530;2022-10-22T05:01:52;95723.72;;;12.04;100.00
55149;BME280;49539;48.160;11.530;2022-10-22T05:04:17;95729.75;;;12.11;100.00
55149;BME280;49539;48.160;11.530;2022-10-22T05:06:44;95732.13;;;12.09;100.00
55149;BME280;49539;48.160;11.530;2022-10-22T05:09:13;95728.31;;;12.07;100.00
55149;BME280;49539;48.160;11.530;2022-10-22T05:11:40;95722.50;;;12.05;100.00
55149;BME280;49539;48.160;11.530;2022-10-22T05:14:07;95719.09;;;11.88;100.00
55149;BME280;49539;48.160;11.530;2022-10-22T05:16:33;95720.19;;;11.90;100.00
55149;BME280;49539;48.160;11.530;2022-10-22T05:19:00;95708.41;;;11.94;100.00
55149;BME280;49539;48.160;11.530;2022-10-22T05:21:26;95712.31;;;11.92;100.00
55149;BME280;49539;48.160;11.530;2022-10-22T05:23:51;95710.81;;;11.91;100.00
55149;BME280;49539;48.160;11.530;2022-10-22T05:26:18;95714.97;;;11.96;100.00
55149;BME280;49539;48.160;11.530;2022-10-22T05:28:44;95720.19;;;11.90;100.00
55149;BME280;49539;48.160;11.530;2022-10-22T05:31:10;95721.19;;;11.97;100.00
55149;BME280;49539;48.160;11.530;2022-10-22T05:33:37;95727.84;;;11.96;100.00
55149;BME280;49539;48.160;11.530;2022-10-22T05:36:03;95732.53;;;11.95;100.00
55149;BME280;49539;48.160;11.530;2022-10-22T05:38:30;95737.47;;;12.00;100.00
55149;BME280;49539;48.160;11.530;2022-10-22T05:41:05;95748.72;;;12.02;100.00
55149;BME280;49539;48.160;11.530;2022-10-22T05:43:30;95751.00;;;12.04;100.00
55149;BME280;49539;48.160;11.530;2022-10-22T05:46:00;95755.63;;;12.07;100.00
55149;BME280;49539;48.160;11.530;2022-10-22T05:48:26;95751.69;;;12.08;100.00
55149;BME280;49539;48.160;11.530;2022-10-22T05:50:51;95756.59;;;12.13;100.00
55149;BME280;49539;48.160;11.530;2022-10-22T05:53:16;95749.97;;;12.14;100.00
55149;BME280;49539;48.160;11.530;2022-10-22T05:55:43;95752.69;;;12.14;100.00
55149;BME280;49539;48.160;11.530;2022-10-22T05:58:08;95754.97;;;12.15;100.00
55149;BME280;49539;48.160;11.530;2022-10-22T06:00:34;95742.94;;;12.13;100.00
55149;BME280;49539;48.160;11.530;2022-10-22T06:03:00;95741.09;;;12.10;100.00
55149;BME280;49539;48.160;11.530;2022-10-22T06:05:25;95746.69;;;12.19;100.00
55149;BME280;49539;48.160;11.530;2022-10-22T06:07:50;95754.53;;;12.17;100.00
55149;BME280;49539;48.160;11.530;2022-10-22T06:10:17;95750.06;;;12.23;100.00
55149;BME280;49539;48.160;11.530;2022-10-22T06:12:43;95748.56;;;12.22;100.00
55149;BME280;49539;48.160;11.530;2022-10-22T06:15:13;95751.47;;;12.15;100.00
55149;BME280;49539;48.160;11.530;2022-10-22T06:17:39;95763.84;;;12.20;100.00
55149;BME280;49539;48.160;11.530;2022-10-22T06:20:05;95760.88;;;12.14;100.00
55149;BME280;49539;48.160;11.530;2022-10-22T06:22:30;95764.50;;;12.24;100.00
55149;BME280;49539;48.160;11.530;2022-10-22T06:24:56;95764.81;;;12.26;100.00
55149;BME280;49539;48.160;11.530;2022-10-22T06:27:22;95765.25;;;12.24;100.00
55149;BME280;49539;48.160;11.530;2022-10-22T06:29:47;95773.78;;;12.26;100.00
55149;BME280;49539;48.160;11.530;2022-10-22T06:32:13;95791.81;;;12.24;100.00
55149;BME280;49539;48.160;11.530;2022-10-22T06:34:38;95790.19;;;12.26;100.00
55149;BME280;49539;48.160;11.530;2022-10-22T06:37:04;95793.78;;;12.36;100.00
55149;BME280;49539;48.160;11.530;2022-10-22T06:39:29;95794.56;;;12.36;100.00
55149;BME280;49539;48.160;11.530;2022-10-22T06:41:54;95778.16;;;12.36;100.00
55149;BME280;49539;48.160;11.530;2022-10-22T06:44:20;95781.13;;;12.42;100.00
55149;BME280;49539;48.160;11.530;2022-10-22T06:46:48;95777.19;;;12.30;100.00
55149;BME280;49539;48.160;11.530;2022-10-22T06:49:13;95776.75;;;12.32;100.00
55149;BME280;49539;48.160;11.530;2022-10-22T06:51:39;95775.66;;;12.42;100.00
55149;BME280;49539;48.160;11.530;2022-10-22T06:54:05;95771.06;;;12.39;100.00
55149;BME280;49539;48.160;11.530;2022-10-22T06:56:31;95781.44;;;12.31;100.00
55149;BME280;49539;48.160;11.530;2022-10-22T06:58:56;95802.84;;;12.33;100.00
55149;BME280;49539;48.160;11.530;2022-10-22T07:01:26;95814.13;;;12.48;100.00
55149;BME280;49539;48.160;11.530;2022-10-22T07:03:52;95821.44;;;12.51;100.00
55149;BME280;49539;48.160;11.530;2022-10-22T07:06:17;95829.13;;;12.56;100.00
55149;BME280;49539;48.160;11.530;2022-10-22T07:08:44;95831.31;;;12.61;100.00
55149;BME280;49539;48.160;11.530;2022-10-22T07:11:13;95835.09;;;12.51;100.00
55149;BME280;49539;48.160;11.530;2022-10-22T07:13:40;95843.09;;;12.58;100.00
55149;BME280;49539;48.160;11.530;2022-10-22T07:16:06;95853.28;;;12.70;100.00
55149;BME280;49539;48.160;11.530;2022-10-22T07:18:32;95869.78;;;12.66;100.00
55149;BME280;49539;48.160;11.530;2022-10-22T07:20:58;95884.66;;;12.65;100.00
55149;BME280;49539;48.160;11.530;2022-10-22T07:23:23;95883.69;;;12.72;100.00
55149;BME280;49539;48.160;11.530;2022-10-22T07:25:49;95881.28;;;12.74;100.00
55149;BME280;49539;48.160;11.530;2022-10-22T07:28:14;95884.25;;;12.80;100.00
55149;BME280;49539;48.160;11.530;2022-10-22T07:30:40;95885.53;;;12.75;100.00
55149;BME280;49539;48.160;11.530;2022-10-22T07:33:06;95894.19;;;12.74;100.00
55149;BME280;49539;48.160;11.530;2022-10-22T07:35:31;95903.50;;;12.76;100.00
55149;BME280;49539;48.160;11.530;2022-10-22T07:37:58;95900.31;;;12.90;100.00
55149;BME280;49539;48.160;11.530;2022-10-22T07:40:23;95902.97;;;12.94;100.00
55149;BME280;49539;48.160;11.530;2022-10-22T07:42:49;95915.09;;;12.93;100.00
55149;BME280;49539;48.160;11.530;2022-10-22T07:45:14;95908.66;;;13.00;100.00
55149;BME280;49539;48.160;11.530;2022-10-22T07:47:40;95914.13;;;13.00;100.00
55149;BME280;49539;48.160;11.530;2022-10-22T07:50:06;95925.50;;;12.98;100.00
55149;BME280;49539;48.160;11.530;2022-10-22T07:52:32;95920.13;;;13.07;100.00
55149;BME280;49539;48.160;11.530;2022-10-22T07:54:57;95924.31;;;13.12;100.00
55149;BME280;49539;48.160;11.530;2022-10-22T07:57:23;95928.28;;;13.24;100.00
55149;BME280;49539;48.160;11.530;2022-10-22T07:59:48;95924.56;;;13.30;100.00
55149;BME280;49539;48.160;11.530;2022-10-22T08:02:13;95929.59;;;13.45;100.00
55149;BME280;49539;48.160;11.530;2022-10-22T08:04:38;95929.25;;;13.55;100.00
55149;BME280;49539;48.160;11.530;2022-10-22T08:07:05;95925.44;;;13.53;100.00
55149;BME280;49539;48.160;11.530;2022-10-22T08:09:30;95923.69;;;13.59;100.00
55149;BME280;49539;48.160;11.530;2022-10-22T08:11:56;95918.63;;;13.57;100.00
55149;BME280;49539;48.160;11.530;2022-10-22T08:14:21;95926.72;;;13.61;100.00
55149;BME280;49539;48.160;11.530;2022-10-22T08:16:46;95929.47;;;13.61;100.00
55149;BME280;49539;48.160;11.530;2022-10-22T08:19:12;95939.22;;;13.75;100.00
55149;BME280;49539;48.160;11.530;2022-10-22T08:21:38;95939.00;;;13.69;100.00
55149;BME280;49539;48.160;11.530;2022-10-22T08:24:05;95937.16;;;13.66;100.00
55149;BME280;49539;48.160;11.530;2022-10-22T08:26:31;95942.63;;;13.66;100.00
55149;BME280;49539;48.160;11.530;2022-10-22T08:28:56;95946.78;;;13.71;100.00
55149;BME280;49539;48.160;11.530;2022-10-22T08:31:22;95945.22;;;13.70;100.00
55149;BME280;49539;48.160;11.530;2022-10-22T08:33:47;95961.34;;;13.68;100.00
55149;BME280;49539;48.160;11.530;2022-10-22T08:36:13;95967.00;;;13.73;100.00
55149;BME280;49539;48.160;11.530;2022-10-22T08:38:38;95965.91;;;13.83;100.00
55149;BME280;49539;48.160;11.530;2022-10-22T08:41:08;95960.66;;;13.89;100.00
55149;BME280;49539;48.160;11.530;2022-10-22T08:48:34;95978.38;;;13.97;100.00
55149;BME280;49539;48.160;11.530;2022-10-22T08:51:02;95971.47;;;14.05;100.00
55149;BME280;49539;48.160;11.530;2022-10-22T08:53:35;95967.41;;;14.10;100.00
55149;BME280;49539;48.160;11.530;2022-10-22T08:56:04;95972.66;;;14.17;100.00
55149;BME280;49539;48.160;11.530;2022-10-22T09:00:59;95976.69;;;14.25;100.00
55149;BME280;49539;48.160;11.530;2022-10-22T09:06:06;95981.72;;;14.27;100.00
55149;BME280;49539;48.160;11.530;2022-10-22T09:08:32;95986.66;;;14.32;100.00
55149;BME280;49539;48.160;11.530;2022-10-22T09:11:21;95993.72;;;14.42;100.00
55149;BME280;49539;48.160;11.530;2022-10-22T09:13:48;95990.97;;;14.42;100.00
55149;BME280;49539;48.160;11.530;2022-10-22T09:23:57;96001.28;;;14.51;100.00
55149;BME280;49539;48.160;11.530;2022-10-22T09:26:24;96000.06;;;14.52;100.00
55149;BME280;49539;48.160;11.530;2022-10-22T09:28:50;95988.88;;;14.81;100.00
55149;BME280;49539;48.160;11.530;2022-10-22T09:31:16;95994.81;;;14.79;100.00
55149;BME280;49539;48.160;11.530;2022-10-22T09:33:42;95989.34;;;14.79;100.00
55149;BME280;49539;48.160;11.530;2022-10-22T09:36:08;95992.78;;;14.93;100.00
55149;BME280;49539;48.160;11.530;2022-10-22T09:38:43;95994.50;;;14.77;100.00
55149;BME280;49539;48.160;11.530;2022-10-22T09:41:09;95993.16;;;14.82;100.00
55149;BME280;49539;48.160;11.530;2022-10-22T09:43:35;95996.34;;;15.02;100.00
55149;BME280;49539;48.160;11.530;2022-10-22T09:46:01;95997.31;;;15.08;100.00
55149;BME280;49539;48.160;11.530;2022-10-22T09:48:33;95996.72;;;15.13;100.00
55149;BME280;49539;48.160;11.530;2022-10-22T09:51:02;95997.69;;;15.20;100.00
55149;BME280;49539;48.160;11.530;2022-10-22T09:53:29;95996.34;;;15.24;100.00
55149;BME280;49539;48.160;11.530;2022-10-22T09:55:55;96006.34;;;15.18;100.00
55149;BME280;49539;48.160;11.530;2022-10-22T09:58:21;96011.41;;;15.20;100.00
55149;BME280;49539;48.160;11.530;2022-10-22T10:00:49;96006.25;;;15.00;100.00
55149;BME280;49539;48.160;11.530;2022-10-22T10:03:19;96009.03;;;15.09;100.00
55149;BME280;49539;48.160;11.530;2022-10-22T10:05:46;96012.41;;;15.13;100.00
55149;BME280;49539;48.160;11.530;2022-10-22T10:08:13;96009.44;;;14.98;100.00
55149;BME280;49539;48.160;11.530;2022-10-22T10:10:41;96006.41;;;15.27;100.00
55149;BME280;49539;48.160;11.530;2022-10-22T10:15:39;96005.34;;;15.56;100.00
55149;BME280;49539;48.160;11.530;2022-10-22T10:18:17;95995.25;;;15.53;100.00
55149;BME280;49539;48.160;11.530;2022-10-22T10:23:32;96000.72;;;15.22;100.00
55149;BME280;49539;48.160;11.530;2022-10-22T10:28:37;95990.38;;;15.48;100.00
55149;BME280;49539;48.160;11.530;2022-10-22T10:33:54;95987.16;;;15.80;100.00
55149;BME280;49539;48.160;11.530;2022-10-22T10:39:02;95975.34;;;16.11;100.00
55149;BME280;49539;48.160;11.530;2022-10-22T10:41:37;95987.91;;;16.40;100.00
55149;BME280;49539;48.160;11.530;2022-10-22T10:44:19;95974.44;;;16.42;100.00
55149;BME280;49539;48.160;11.530;2022-10-22T10:46:52;95965.47;;;16.59;100.00
55149;BME280;49539;48.160;11.530;2022-10-22T10:49:23;95964.97;;;16.24;100.00
55149;BME280;49539;48.160;11.530;2022-10-22T10:54:35;95966.19;;;16.42;100.00
55149;BME280;49539;48.160;11.530;2022-10-22T10:59:42;95956.28;;;16.44;100.00
55149;BME280;49539;48.160;11.530;2022-10-22T11:07:23;95967.91;;;16.48;100.00
55149;BME280;49539;48.160;11.530;2022-10-22T11:09:55;95968.38;;;16.74;100.00
55149;BME280;49539;48.160;11.530;2022-10-22T11:12:24;95967.00;;;16.88;100.00
55149;BME280;49539;48.160;11.530;2022-10-22T11:17:19;95962.22;;;17.16;100.00
55149;BME280;49539;48.160;11.530;2022-10-22T11:19:49;95953.16;;;17.25;100.00
55149;BME280;49539;48.160;11.530;2022-10-22T11:24:51;95957.16;;;17.66;100.00
55149;BME280;49539;48.160;11.530;2022-10-22T11:27:23;95948.75;;;17.94;100.00
55149;BME280;49539;48.160;11.530;2022-10-22T11:29:55;95942.16;;;18.24;100.00
55149;BME280;49539;48.160;11.530;2022-10-22T11:32:22;95937.38;;;18.49;100.00
55149;BME280;49539;48.160;11.530;2022-10-22T11:34:52;95940.81;;;18.58;100.00
55149;BME280;49539;48.160;11.530;2022-10-22T11:37:18;95932.44;;;18.53;100.00
55149;BME280;49539;48.160;11.530;2022-10-22T11:39:56;95931.72;;;18.28;100.00
55149;BME280;49539;48.160;11.530;2022-10-22T11:45:02;95930.03;;;18.07;100.00
55149;BME280;49539;48.160;11.530;2022-10-22T11:47:32;95927.44;;;18.27;100.00
55149;BME280;49539;48.160;11.530;2022-10-22T11:50:17;95931.72;;;18.28;100.00
55149;BME280;49539;48.160;11.530;2022-10-22T11:52:53;95927.00;;;18.44;100.00
55149;BME280;49539;48.160;11.530;2022-10-22T11:55:31;95919.06;;;18.75;100.00
55149;BME280;49539;48.160;11.530;2022-10-22T11:58:00;95929.78;;;18.58;100.00
55149;BME280;49539;48.160;11.530;2022-10-22T12:00:46;95921.03;;;18.21;100.00
55149;BME280;49539;48.160;11.530;2022-10-22T12:05:41;95929.13;;;18.01;100.00
55149;BME280;49539;48.160;11.530;2022-10-22T12:08:20;95930.72;;;18.17;100.00
55149;BME280;49539;48.160;11.530;2022-10-22T12:13:31;95924.81;;;18.87;100.00
55149;BME280;49539;48.160;11.530;2022-10-22T12:15:57;95919.88;;;18.52;100.00
55149;BME280;49539;48.160;11.530;2022-10-22T12:18:25;95926.13;;;18.38;100.00
55149;BME280;49539;48.160;11.530;2022-10-22T12:20:52;95925.34;;;17.98;100.00
55149;BME280;49539;48.160;11.530;2022-10-22T12:23:18;95922.75;;;17.95;100.00
55149;BME280;49539;48.160;11.530;2022-10-22T12:25:45;95913.94;;;19.27;100.00
55149;BME280;49539;48.160;11.530;2022-10-22T12:28:10;95904.53;;;20.92;100.00
55149;BME280;49539;48.160;11.530;2022-10-22T12:30:36;95910.41;;;20.99;100.00
55149;BME280;49539;48.160;11.530;2022-10-22T12:33:03;95909.03;;;20.63;100.00
55149;BME280;49539;48.160;11.530;2022-10-22T12:35:30;95902.03;;;20.94;100.00
55149;BME280;49539;48.160;11.530;2022-10-22T12:37:57;95915.31;;;21.16;100.00
55149;BME280;49539;48.160;11.530;2022-10-22T12:40:23;95906.88;;;20.99;100.00
55149;BME280;49539;48.160;11.530;2022-10-22T12:42:53;95900.91;;;21.69;100.00
55149;BME280;49539;48.160;11.530;2022-10-22T12:45:19;95899.78;;;22.47;100.00
55149;BME280;49539;48.160;11.530;2022-10-22T12:47:47;95889.91;;;22.35;100.00
55149;BME280;49539;48.160;11.530;2022-10-22T12:50:17;95898.81;;;22.67;100.00
55149;BME280;49539;48.160;11.530;2022-10-22T12:52:43;95889.03;;;23.89;100.00
55149;BME280;49539;48.160;11.530;2022-10-22T12:55:13;95894.88;;;23.74;100.00
55149;BME280;49539;48.160;11.530;2022-10-22T12:57:47;95890.31;;;23.83;100.00
55149;BME280;49539;48.160;11.530;2022-10-22T13:00:23;95900.41;;;23.91;100.00
55149;BME280;49539;48.160;11.530;2022-10-22T13:02:49;95902.97;;;22.28;100.00
55149;BME280;49539;48.160;11.530;2022-10-22T13:05:16;95896.03;;;22.56;100.00
55149;BME280;49539;48.160;11.530;2022-10-22T13:07:52;95892.78;;;22.68;100.00
55149;BME280;49539;48.160;11.530;2022-10-22T13:10:25;95897.13;;;21.72;100.00
55149;BME280;49539;48.160;11.530;2022-10-22T13:12:55;95893.34;;;21.33;100.00
55149;BME280;49539;48.160;11.530;2022-10-22T13:20:26;95883.53;;;21.37;100.00
55149;BME280;49539;48.160;11.530;2022-10-22T13:22:53;95884.28;;;21.38;100.00
55149;BME280;49539;48.160;11.530;2022-10-22T13:27:45;95889.50;;;20.72;100.00
55149;BME280;49539;48.160;11.530;2022-10-22T13:30:17;95887.50;;;20.32;100.00
55149;BME280;49539;48.160;11.530;2022-10-22T13:32:47;95888.50;;;20.29;100.00
55149;BME280;49539;48.160;11.530;2022-10-22T13:35:13;95890.84;;;20.83;100.00
55149;BME280;49539;48.160;11.530;2022-10-22T13:37:41;95882.88;;;20.90;100.00
55149;BME280;49539;48.160;11.530;2022-10-22T13:40:10;95880.69;;;21.63;100.00
55149;BME280;49539;48.160;11.530;2022-10-22T13:42:35;95874.22;;;21.09;100.00
55149;BME280;49539;48.160;11.530;2022-10-22T13:45:03;95881.81;;;21.40;100.00
55149;BME280;49539;48.160;11.530;2022-10-22T13:47:28;95887.41;;;21.19;100.00
55149;BME280;49539;48.160;11.530;2022-10-22T13:49:54;95897.66;;;20.41;100.00
55149;BME280;49539;48.160;11.530;2022-10-22T13:52:55;95891.09;;;21.11;100.00
55149;BME280;49539;48.160;11.530;2022-10-22T13:55:14;95883.56;;;20.39;100.00
55149;BME280;49539;48.160;11.530;2022-10-22T13:57:40;95890.50;;;20.49;100.00
55149;BME280;49539;48.160;11.530;2022-10-22T14:00:05;95895.13;;;19.96;100.00
55149;BME280;49539;48.160;11.530;2022-10-22T14:02:31;95886.00;;;19.90;100.00
55149;BME280;49539;48.160;11.530;2022-10-22T14:04:57;95885.28;;;20.56;100.00